sensor_id;sensor_type;location;lat;lon;timestamp;P1;durP1;ratioP1;P2;durP2;ratioP2
35380;SDS011;21486;51.916;8.378;2023-04-24T00:01:40;1.50;;;0.70;;
35380;SDS011;21486;51.916;8.378;2023-04-24T00:04:06;0.60;;;0.60;;
35380;SDS011;21486;51.916;8.378;2023-04-24T00:06:35;1.23;;;0.80;;
35380;SDS011;21486;51.916;8.378;2023-04-24T00:09:07;2.67;;;0.90;;
35380;SDS011;21486;51.916;8.378;2023-04-24T00:11:35;2.75;;;0.90;;
35380;SDS011;21486;51.916;8.378;2023-04-24T00:14:01;0.70;;;0.70;;
35380;SDS011;21486;51.916;8.378;2023-04-24T00:16:26;1.00;;;0.90;;
35380;SDS011;21486;51.916;8.378;2023-04-24T00:18:52;1.50;;;0.82;;
35380;SDS011;21486;51.916;8.378;2023-04-24T00:21:18;2.00;;;0.80;;
35380;SDS011;21486;51.916;8.378;2023-04-24T00:23:44;2.00;;;1.00;;
35380;SDS011;21486;51.916;8.378;2023-04-24T00:26:09;1.10;;;1.00;;
35380;SDS011;21486;51.916;8.378;2023-04-24T00:28:35;1.90;;;0.90;;
35380;SDS011;21486;51.916;8.378;2023-04-24T00:33:03;3.63;;;1.30;;
35380;SDS011;21486;51.916;8.378;2023-04-24T00:35:29;1.00;;;0.90;;
35380;SDS011;21486;51.916;8.378;2023-04-24T00:37:54;3.88;;;1.25;;
35380;SDS011;21486;51.916;8.378;2023-04-24T00:40:20;3.95;;;1.00;;
35380;SDS011;21486;51.916;8.378;2023-04-24T00:42:46;0.70;;;0.70;;
35380;SDS011;21486;51.916;8.378;2023-04-24T00:45:11;2.23;;;1.00;;
35380;SDS011;21486;51.916;8.378;2023-04-24T00:47:37;1.10;;;0.88;;
35380;SDS011;21486;51.916;8.378;2023-04-24T00:50:04;1.27;;;0.90;;
35380;SDS011;21486;51.916;8.378;2023-04-24T00:52:31;2.25;;;1.00;;
35380;SDS011;21486;51.916;8.378;2023-04-24T00:54:57;2.42;;;1.10;;
35380;SDS011;21486;51.916;8.378;2023-04-24T00:57:23;1.83;;;0.80;;
35380;SDS011;21486;51.916;8.378;2023-04-24T00:59:50;1.95;;;1.20;;
35380;SDS011;21486;51.916;8.378;2023-04-24T01:02:16;1.90;;;1.10;;
35380;SDS011;21486;51.916;8.378;2023-04-24T01:04:42;2.92;;;1.00;;
35380;SDS011;21486;51.916;8.378;2023-04-24T01:07:08;3.10;;;1.20;;
35380;SDS011;21486;51.916;8.378;2023-04-24T01:09:37;1.27;;;1.10;;
35380;SDS011;21486;51.916;8.378;2023-04-24T01:12:04;1.38;;;1.00;;
35380;SDS011;21486;51.916;8.378;2023-04-24T01:14:30;1.33;;;1.10;;
35380;SDS011;21486;51.916;8.378;2023-04-24T01:16:56;1.20;;;1.10;;
35380;SDS011;21486;51.916;8.378;2023-04-24T01:19:22;1.75;;;1.27;;
35380;SDS011;21486;51.916;8.378;2023-04-24T01:21:48;2.03;;;0.93;;
35380;SDS011;21486;51.916;8.378;2023-04-24T01:24:18;1.60;;;1.10;;
35380;SDS011;21486;51.916;8.378;2023-04-24T01:26:44;1.55;;;1.17;;
35380;SDS011;21486;51.916;8.378;2023-04-24T01:29:11;1.88;;;0.80;;
35380;SDS011;21486;51.916;8.378;2023-04-24T01:31:37;0.90;;;0.77;;
35380;SDS011;21486;51.916;8.378;2023-04-24T01:34:04;1.77;;;1.13;;
35380;SDS011;21486;51.916;8.378;2023-04-24T01:36:30;1.10;;;1.05;;
35380;SDS011;21486;51.916;8.378;2023-04-24T01:38:58;1.20;;;1.10;;
35380;SDS011;21486;51.916;8.378;2023-04-24T01:41:23;1.63;;;1.20;;
35380;SDS011;21486;51.916;8.378;2023-04-24T01:43:49;1.73;;;1.10;;
35380;SDS011;21486;51.916;8.378;2023-04-24T01:46:15;2.17;;;1.30;;
35380;SDS011;21486;51.916;8.378;2023-04-24T01:48:41;2.42;;;1.35;;
35380;SDS011;21486;51.916;8.378;2023-04-24T01:51:07;2.40;;;1.40;;
35380;SDS011;21486;51.916;8.378;2023-04-24T01:53:32;2.33;;;1.37;;
35380;SDS011;21486;51.916;8.378;2023-04-24T01:55:58;1.73;;;1.33;;
35380;SDS011;21486;51.916;8.378;2023-04-24T01:58:24;3.90;;;1.70;;
35380;SDS011;21486;51.916;8.378;2023-04-24T02:00:49;2.33;;;1.20;;
35380;SDS011;21486;51.916;8.378;2023-04-24T02:03:15;2.93;;;1.43;;
35380;SDS011;21486;51.916;8.378;2023-04-24T02:05:43;2.28;;;1.25;;
35380;SDS011;21486;51.916;8.378;2023-04-24T02:08:09;2.10;;;1.38;;
35380;SDS011;21486;51.916;8.378;2023-04-24T02:10:34;2.70;;;1.40;;
35380;SDS011;21486;51.916;8.378;2023-04-24T02:13:00;3.03;;;1.40;;
35380;SDS011;21486;51.916;8.378;2023-04-24T02:15:26;2.37;;;1.20;;
35380;SDS011;21486;51.916;8.378;2023-04-24T02:17:51;2.37;;;1.30;;
35380;SDS011;21486;51.916;8.378;2023-04-24T02:20:17;1.60;;;1.50;;
35380;SDS011;21486;51.916;8.378;2023-04-24T02:22:42;1.40;;;1.30;;
35380;SDS011;21486;51.916;8.378;2023-04-24T02:25:08;1.40;;;1.30;;
35380;SDS011;21486;51.916;8.378;2023-04-24T02:27:34;2.20;;;1.20;;
35380;SDS011;21486;51.916;8.378;2023-04-24T02:29:59;1.60;;;1.50;;
35380;SDS011;21486;51.916;8.378;2023-04-24T02:32:25;1.30;;;1.10;;
35380;SDS011;21486;51.916;8.378;2023-04-24T02:34:51;1.70;;;1.30;;
35380;SDS011;21486;51.916;8.378;2023-04-24T02:37:16;2.40;;;1.40;;
35380;SDS011;21486;51.916;8.378;2023-04-24T02:39:42;1.55;;;1.27;;
35380;SDS011;21486;51.916;8.378;2023-04-24T02:42:07;2.37;;;1.20;;
35380;SDS011;21486;51.916;8.378;2023-04-24T02:44:33;1.77;;;1.33;;
35380;SDS011;21486;51.916;8.378;2023-04-24T02:46:58;3.20;;;1.43;;
35380;SDS011;21486;51.916;8.378;2023-04-24T02:49:24;1.75;;;1.38;;
35380;SDS011;21486;51.916;8.378;2023-04-24T02:51:50;2.45;;;1.30;;
35380;SDS011;21486;51.916;8.378;2023-04-24T02:54:16;4.63;;;1.50;;
35380;SDS011;21486;51.916;8.378;2023-04-24T02:56:41;1.13;;;1.03;;
35380;SDS011;21486;51.916;8.378;2023-04-24T02:59:07;1.93;;;1.27;;
35380;SDS011;21486;51.916;8.378;2023-04-24T03:01:33;1.45;;;1.10;;
35380;SDS011;21486;51.916;8.378;2023-04-24T03:03:58;1.58;;;1.17;;
35380;SDS011;21486;51.916;8.378;2023-04-24T03:06:24;1.50;;;1.10;;
35380;SDS011;21486;51.916;8.378;2023-04-24T03:08:49;1.90;;;1.20;;
35380;SDS011;21486;51.916;8.378;2023-04-24T03:11:15;1.90;;;1.20;;
35380;SDS011;21486;51.916;8.378;2023-04-24T03:13:40;1.30;;;1.20;;
35380;SDS011;21486;51.916;8.378;2023-04-24T03:16:06;1.63;;;1.00;;
35380;SDS011;21486;51.916;8.378;2023-04-24T03:18:31;2.60;;;1.20;;
35380;SDS011;21486;51.916;8.378;2023-04-24T03:20:57;1.93;;;1.10;;
35380;SDS011;21486;51.916;8.378;2023-04-24T03:23:22;4.30;;;1.23;;
35380;SDS011;21486;51.916;8.378;2023-04-24T03:25:48;2.90;;;1.37;;
35380;SDS011;21486;51.916;8.378;2023-04-24T03:28:13;2.07;;;1.30;;
35380;SDS011;21486;51.916;8.378;2023-04-24T03:30:39;1.80;;;1.20;;
35380;SDS011;21486;51.916;8.378;2023-04-24T03:33:05;1.40;;;1.30;;
35380;SDS011;21486;51.916;8.378;2023-04-24T03:35:30;2.88;;;1.80;;
35380;SDS011;21486;51.916;8.378;2023-04-24T03:37:56;1.98;;;1.40;;
35380;SDS011;21486;51.916;8.378;2023-04-24T03:40:21;3.23;;;1.50;;
35380;SDS011;21486;51.916;8.378;2023-04-24T03:42:47;2.90;;;1.40;;
35380;SDS011;21486;51.916;8.378;2023-04-24T03:45:12;2.55;;;1.55;;
35380;SDS011;21486;51.916;8.378;2023-04-24T03:47:38;2.60;;;1.70;;
35380;SDS011;21486;51.916;8.378;2023-04-24T03:50:04;2.15;;;1.80;;
35380;SDS011;21486;51.916;8.378;2023-04-24T03:52:30;2.80;;;1.88;;
35380;SDS011;21486;51.916;8.378;2023-04-24T03:54:56;2.75;;;1.88;;
35380;SDS011;21486;51.916;8.378;2023-04-24T03:57:21;2.58;;;1.98;;
35380;SDS011;21486;51.916;8.378;2023-04-24T03:59:47;2.70;;;2.00;;
35380;SDS011;21486;51.916;8.378;2023-04-24T04:02:12;2.47;;;2.27;;
35380;SDS011;21486;51.916;8.378;2023-04-24T04:04:38;5.97;;;2.47;;
35380;SDS011;21486;51.916;8.378;2023-04-24T04:07:03;2.53;;;2.22;;
35380;SDS011;21486;51.916;8.378;2023-04-24T04:09:30;3.83;;;2.47;;
35380;SDS011;21486;51.916;8.378;2023-04-24T04:11:56;4.90;;;2.60;;
35380;SDS011;21486;51.916;8.378;2023-04-24T04:14:21;4.57;;;2.50;;
35380;SDS011;21486;51.916;8.378;2023-04-24T04:16:48;3.67;;;2.90;;
35380;SDS011;21486;51.916;8.378;2023-04-24T04:19:13;5.37;;;2.80;;
35380;SDS011;21486;51.916;8.378;2023-04-24T04:21:39;4.03;;;2.57;;
35380;SDS011;21486;51.916;8.378;2023-04-24T04:24:04;6.38;;;3.15;;
35380;SDS011;21486;51.916;8.378;2023-04-24T04:26:32;5.85;;;2.90;;
35380;SDS011;21486;51.916;8.378;2023-04-24T04:28:58;5.75;;;3.35;;
35380;SDS011;21486;51.916;8.378;2023-04-24T04:31:25;7.30;;;3.50;;
35380;SDS011;21486;51.916;8.378;2023-04-24T04:33:51;6.45;;;3.70;;
35380;SDS011;21486;51.916;8.378;2023-04-24T04:36:16;6.73;;;4.20;;
35380;SDS011;21486;51.916;8.378;2023-04-24T04:38:43;8.48;;;5.40;;
35380;SDS011;21486;51.916;8.378;2023-04-24T04:41:09;11.85;;;6.45;;
35380;SDS011;21486;51.916;8.378;2023-04-24T04:43:35;8.18;;;6.18;;
35380;SDS011;21486;51.916;8.378;2023-04-24T04:46:01;12.53;;;7.47;;
35380;SDS011;21486;51.916;8.378;2023-04-24T04:48:28;11.18;;;7.30;;
35380;SDS011;21486;51.916;8.378;2023-04-24T04:50:53;10.50;;;7.53;;
35380;SDS011;21486;51.916;8.378;2023-04-24T04:53:19;13.27;;;8.70;;
35380;SDS011;21486;51.916;8.378;2023-04-24T04:55:45;13.30;;;8.63;;
35380;SDS011;21486;51.916;8.378;2023-04-24T04:58:11;11.90;;;8.48;;
35380;SDS011;21486;51.916;8.378;2023-04-24T05:00:37;14.88;;;9.68;;
35380;SDS011;21486;51.916;8.378;2023-04-24T05:03:04;12.95;;;9.55;;
35380;SDS011;21486;51.916;8.378;2023-04-24T05:05:30;14.63;;;9.75;;
35380;SDS011;21486;51.916;8.378;2023-04-24T05:07:55;15.65;;;9.48;;
35380;SDS011;21486;51.916;8.378;2023-04-24T05:10:21;15.03;;;9.30;;
35380;SDS011;21486;51.916;8.378;2023-04-24T05:12:46;15.13;;;9.40;;
35380;SDS011;21486;51.916;8.378;2023-04-24T05:15:12;17.03;;;9.63;;
35380;SDS011;21486;51.916;8.378;2023-04-24T05:17:37;15.65;;;10.02;;
35380;SDS011;21486;51.916;8.378;2023-04-24T05:20:04;15.70;;;10.35;;
35380;SDS011;21486;51.916;8.378;2023-04-24T05:22:31;15.75;;;10.43;;
35380;SDS011;21486;51.916;8.378;2023-04-24T05:24:56;18.80;;;11.13;;
35380;SDS011;21486;51.916;8.378;2023-04-24T05:27:22;16.88;;;11.18;;
35380;SDS011;21486;51.916;8.378;2023-04-24T05:29:48;16.93;;;10.90;;
35380;SDS011;21486;51.916;8.378;2023-04-24T05:32:13;17.27;;;11.07;;
35380;SDS011;21486;51.916;8.378;2023-04-24T05:34:39;16.70;;;11.07;;
35380;SDS011;21486;51.916;8.378;2023-04-24T05:37:04;19.10;;;12.37;;
35380;SDS011;21486;51.916;8.378;2023-04-24T05:39:33;18.90;;;13.47;;
35380;SDS011;21486;51.916;8.378;2023-04-24T05:42:00;20.08;;;13.80;;
35380;SDS011;21486;51.916;8.378;2023-04-24T05:44:26;20.33;;;13.43;;
35380;SDS011;21486;51.916;8.378;2023-04-24T05:46:52;19.97;;;13.27;;
35380;SDS011;21486;51.916;8.378;2023-04-24T05:49:18;23.33;;;14.20;;
35380;SDS011;21486;51.916;8.378;2023-04-24T05:51:43;20.40;;;13.93;;
35380;SDS011;21486;51.916;8.378;2023-04-24T05:54:09;21.73;;;12.70;;
35380;SDS011;21486;51.916;8.378;2023-04-24T05:56:37;23.20;;;13.48;;
35380;SDS011;21486;51.916;8.378;2023-04-24T05:59:02;20.30;;;13.65;;
35380;SDS011;21486;51.916;8.378;2023-04-24T06:01:28;22.25;;;13.45;;
35380;SDS011;21486;51.916;8.378;2023-04-24T06:03:54;22.13;;;13.95;;
35380;SDS011;21486;51.916;8.378;2023-04-24T06:06:20;22.40;;;14.10;;
35380;SDS011;21486;51.916;8.378;2023-04-24T06:08:45;21.25;;;13.75;;
35380;SDS011;21486;51.916;8.378;2023-04-24T06:11:11;21.67;;;13.82;;
35380;SDS011;21486;51.916;8.378;2023-04-24T06:13:36;19.03;;;14.33;;
35380;SDS011;21486;51.916;8.378;2023-04-24T06:16:02;21.80;;;13.23;;
35380;SDS011;21486;51.916;8.378;2023-04-24T06:18:27;20.80;;;13.43;;
35380;SDS011;21486;51.916;8.378;2023-04-24T06:20:53;19.05;;;13.48;;
35380;SDS011;21486;51.916;8.378;2023-04-24T06:23:20;19.50;;;13.55;;
35380;SDS011;21486;51.916;8.378;2023-04-24T06:25:45;21.50;;;13.87;;
35380;SDS011;21486;51.916;8.378;2023-04-24T06:28:11;19.47;;;13.20;;
35380;SDS011;21486;51.916;8.378;2023-04-24T06:30:36;22.13;;;13.67;;
35380;SDS011;21486;51.916;8.378;2023-04-24T06:33:02;20.40;;;13.80;;
35380;SDS011;21486;51.916;8.378;2023-04-24T06:35:28;20.52;;;13.98;;
35380;SDS011;21486;51.916;8.378;2023-04-24T06:37:53;19.90;;;13.60;;
35380;SDS011;21486;51.916;8.378;2023-04-24T06:40:21;18.50;;;13.90;;
35380;SDS011;21486;51.916;8.378;2023-04-24T06:42:47;18.95;;;13.43;;
35380;SDS011;21486;51.916;8.378;2023-04-24T06:45:12;20.47;;;13.43;;
35380;SDS011;21486;51.916;8.378;2023-04-24T06:47:38;22.13;;;14.30;;
35380;SDS011;21486;51.916;8.378;2023-04-24T06:50:03;18.83;;;13.90;;
35380;SDS011;21486;51.916;8.378;2023-04-24T06:52:29;22.45;;;13.80;;
35380;SDS011;21486;51.916;8.378;2023-04-24T06:55:01;20.27;;;13.33;;
35380;SDS011;21486;51.916;8.378;2023-04-24T06:57:30;16.85;;;12.23;;
35380;SDS011;21486;51.916;8.378;2023-04-24T06:59:56;16.47;;;11.97;;
35380;SDS011;21486;51.916;8.378;2023-04-24T07:02:21;18.07;;;12.00;;
35380;SDS011;21486;51.916;8.378;2023-04-24T07:04:47;16.97;;;11.40;;
35380;SDS011;21486;51.916;8.378;2023-04-24T07:07:13;18.13;;;11.57;;
35380;SDS011;21486;51.916;8.378;2023-04-24T07:09:41;16.15;;;11.45;;
35380;SDS011;21486;51.916;8.378;2023-04-24T07:12:07;16.73;;;10.98;;
35380;SDS011;21486;51.916;8.378;2023-04-24T07:14:35;17.05;;;10.73;;
35380;SDS011;21486;51.916;8.378;2023-04-24T07:17:01;16.33;;;10.55;;
35380;SDS011;21486;51.916;8.378;2023-04-24T07:19:28;17.13;;;10.67;;
35380;SDS011;21486;51.916;8.378;2023-04-24T07:21:53;13.67;;;9.30;;
35380;SDS011;21486;51.916;8.378;2023-04-24T07:24:20;16.08;;;9.98;;
35380;SDS011;21486;51.916;8.378;2023-04-24T07:26:45;16.55;;;9.38;;
35380;SDS011;21486;51.916;8.378;2023-04-24T07:29:11;12.60;;;8.80;;
35380;SDS011;21486;51.916;8.378;2023-04-24T07:31:38;14.17;;;9.03;;
35380;SDS011;21486;51.916;8.378;2023-04-24T07:34:03;14.10;;;8.60;;
35380;SDS011;21486;51.916;8.378;2023-04-24T07:36:29;10.83;;;7.87;;
35380;SDS011;21486;51.916;8.378;2023-04-24T07:38:55;9.87;;;8.00;;
35380;SDS011;21486;51.916;8.378;2023-04-24T07:41:21;11.55;;;7.70;;
35380;SDS011;21486;51.916;8.378;2023-04-24T07:43:47;9.82;;;6.65;;
35380;SDS011;21486;51.916;8.378;2023-04-24T07:46:13;8.37;;;5.93;;
35380;SDS011;21486;51.916;8.378;2023-04-24T07:48:38;9.98;;;6.72;;
35380;SDS011;21486;51.916;8.378;2023-04-24T07:51:04;9.25;;;6.38;;
35380;SDS011;21486;51.916;8.378;2023-04-24T07:53:29;9.00;;;6.47;;
35380;SDS011;21486;51.916;8.378;2023-04-24T07:55:55;9.90;;;6.37;;
35380;SDS011;21486;51.916;8.378;2023-04-24T07:58:21;9.30;;;6.38;;
35380;SDS011;21486;51.916;8.378;2023-04-24T08:00:47;8.45;;;6.10;;
35380;SDS011;21486;51.916;8.378;2023-04-24T08:03:13;7.10;;;5.50;;
35380;SDS011;21486;51.916;8.378;2023-04-24T08:05:38;9.97;;;5.40;;
35380;SDS011;21486;51.916;8.378;2023-04-24T08:08:04;8.63;;;5.40;;
35380;SDS011;21486;51.916;8.378;2023-04-24T08:10:29;9.00;;;5.30;;
35380;SDS011;21486;51.916;8.378;2023-04-24T08:12:55;7.35;;;5.40;;
35380;SDS011;21486;51.916;8.378;2023-04-24T08:15:21;8.50;;;5.57;;
35380;SDS011;21486;51.916;8.378;2023-04-24T08:17:46;6.75;;;5.30;;
35380;SDS011;21486;51.916;8.378;2023-04-24T08:20:12;7.30;;;5.07;;
35380;SDS011;21486;51.916;8.378;2023-04-24T08:22:40;7.10;;;4.85;;
35380;SDS011;21486;51.916;8.378;2023-04-24T08:25:08;6.70;;;4.15;;
35380;SDS011;21486;51.916;8.378;2023-04-24T08:27:34;6.47;;;4.00;;
35380;SDS011;21486;51.916;8.378;2023-04-24T08:30:01;5.53;;;3.67;;
35380;SDS011;21486;51.916;8.378;2023-04-24T08:32:27;3.92;;;3.53;;
35380;SDS011;21486;51.916;8.378;2023-04-24T08:34:54;4.72;;;3.40;;
35380;SDS011;21486;51.916;8.378;2023-04-24T08:37:21;4.22;;;3.33;;
35380;SDS011;21486;51.916;8.378;2023-04-24T08:39:47;4.95;;;3.10;;
35380;SDS011;21486;51.916;8.378;2023-04-24T08:42:13;3.33;;;3.00;;
35380;SDS011;21486;51.916;8.378;2023-04-24T08:44:39;4.38;;;2.90;;
35380;SDS011;21486;51.916;8.378;2023-04-24T08:47:05;4.28;;;3.50;;
35380;SDS011;21486;51.916;8.378;2023-04-24T08:49:33;3.58;;;3.20;;
35380;SDS011;21486;51.916;8.378;2023-04-24T08:52:00;3.72;;;3.35;;
35380;SDS011;21486;51.916;8.378;2023-04-24T08:54:27;4.47;;;2.88;;
35380;SDS011;21486;51.916;8.378;2023-04-24T08:56:54;4.90;;;3.25;;
35380;SDS011;21486;51.916;8.378;2023-04-24T08:59:28;4.10;;;3.08;;
35380;SDS011;21486;51.916;8.378;2023-04-24T09:01:55;3.80;;;2.75;;
35380;SDS011;21486;51.916;8.378;2023-04-24T09:04:21;3.30;;;3.00;;
35380;SDS011;21486;51.916;8.378;2023-04-24T09:06:49;4.45;;;2.80;;
35380;SDS011;21486;51.916;8.378;2023-04-24T09:09:22;3.17;;;2.67;;
35380;SDS011;21486;51.916;8.378;2023-04-24T09:11:49;3.38;;;2.40;;
35380;SDS011;21486;51.916;8.378;2023-04-24T09:14:15;3.70;;;2.70;;
35380;SDS011;21486;51.916;8.378;2023-04-24T09:16:42;3.45;;;2.40;;
35380;SDS011;21486;51.916;8.378;2023-04-24T09:19:08;2.60;;;2.38;;
35380;SDS011;21486;51.916;8.378;2023-04-24T09:21:33;4.20;;;2.20;;
35380;SDS011;21486;51.916;8.378;2023-04-24T09:24:06;2.80;;;2.35;;
35380;SDS011;21486;51.916;8.378;2023-04-24T09:26:38;2.42;;;2.17;;
35380;SDS011;21486;51.916;8.378;2023-04-24T09:29:04;2.70;;;1.90;;
35380;SDS011;21486;51.916;8.378;2023-04-24T09:31:30;2.67;;;2.10;;
35380;SDS011;21486;51.916;8.378;2023-04-24T09:34:03;2.00;;;1.80;;
35380;SDS011;21486;51.916;8.378;2023-04-24T09:36:40;2.83;;;1.95;;
35380;SDS011;21486;51.916;8.378;2023-04-24T09:39:08;2.75;;;1.83;;
35380;SDS011;21486;51.916;8.378;2023-04-24T09:41:45;4.90;;;1.90;;
35380;SDS011;21486;51.916;8.378;2023-04-24T09:44:13;2.45;;;1.70;;
35380;SDS011;21486;51.916;8.378;2023-04-24T09:46:44;2.73;;;1.77;;
35380;SDS011;21486;51.916;8.378;2023-04-24T09:49:14;2.17;;;1.35;;
35380;SDS011;21486;51.916;8.378;2023-04-24T09:51:41;1.70;;;1.60;;
35380;SDS011;21486;51.916;8.378;2023-04-24T09:54:17;2.10;;;1.80;;
35380;SDS011;21486;51.916;8.378;2023-04-24T09:56:46;2.20;;;1.77;;
35380;SDS011;21486;51.916;8.378;2023-04-24T09:59:16;2.22;;;1.70;;
35380;SDS011;21486;51.916;8.378;2023-04-24T10:01:43;2.20;;;1.30;;
35380;SDS011;21486;51.916;8.378;2023-04-24T10:06:43;2.40;;;1.50;;
35380;SDS011;21486;51.916;8.378;2023-04-24T10:09:09;1.30;;;1.20;;
35380;SDS011;21486;51.916;8.378;2023-04-24T10:11:36;1.90;;;1.50;;
35380;SDS011;21486;51.916;8.378;2023-04-24T10:14:04;2.17;;;1.50;;
35380;SDS011;21486;51.916;8.378;2023-04-24T10:16:30;1.60;;;1.50;;
35380;SDS011;21486;51.916;8.378;2023-04-24T10:18:58;2.83;;;1.45;;
35380;SDS011;21486;51.916;8.378;2023-04-24T10:21:25;2.45;;;1.90;;
35380;SDS011;21486;51.916;8.378;2023-04-24T10:23:51;2.88;;;2.08;;
35380;SDS011;21486;51.916;8.378;2023-04-24T10:26:18;3.28;;;2.33;;
35380;SDS011;21486;51.916;8.378;2023-04-24T10:28:45;4.05;;;2.90;;
35380;SDS011;21486;51.916;8.378;2023-04-24T10:31:11;4.07;;;2.90;;
35380;SDS011;21486;51.916;8.378;2023-04-24T10:33:38;5.72;;;4.28;;
35380;SDS011;21486;51.916;8.378;2023-04-24T10:36:11;3.50;;;3.20;;
35380;SDS011;21486;51.916;8.378;2023-04-24T10:38:39;3.88;;;3.05;;
35380;SDS011;21486;51.916;8.378;2023-04-24T10:41:07;7.35;;;4.82;;
35380;SDS011;21486;51.916;8.378;2023-04-24T10:43:44;5.80;;;3.97;;
35380;SDS011;21486;51.916;8.378;2023-04-24T10:46:10;6.00;;;4.45;;
35380;SDS011;21486;51.916;8.378;2023-04-24T10:48:42;4.57;;;2.57;;
35380;SDS011;21486;51.916;8.378;2023-04-24T10:51:12;4.28;;;2.63;;
35380;SDS011;21486;51.916;8.378;2023-04-24T10:53:39;2.97;;;2.45;;
35380;SDS011;21486;51.916;8.378;2023-04-24T10:56:08;3.13;;;2.40;;
35380;SDS011;21486;51.916;8.378;2023-04-24T10:58:41;2.65;;;2.20;;
35380;SDS011;21486;51.916;8.378;2023-04-24T11:01:22;2.13;;;1.92;;
35380;SDS011;21486;51.916;8.378;2023-04-24T11:03:51;3.00;;;2.20;;
35380;SDS011;21486;51.916;8.378;2023-04-24T11:06:28;3.15;;;2.53;;
35380;SDS011;21486;51.916;8.378;2023-04-24T11:09:04;3.40;;;2.75;;
35380;SDS011;21486;51.916;8.378;2023-04-24T11:11:33;3.72;;;3.03;;
35380;SDS011;21486;51.916;8.378;2023-04-24T11:14:01;3.58;;;3.28;;
35380;SDS011;21486;51.916;8.378;2023-04-24T11:29:42;7.27;;;5.90;;
35380;SDS011;21486;51.916;8.378;2023-04-24T11:34:58;6.47;;;5.10;;
35380;SDS011;21486;51.916;8.378;2023-04-24T11:37:41;7.60;;;5.27;;
35380;SDS011;21486;51.916;8.378;2023-04-24T11:40:11;8.82;;;5.40;;
35380;SDS011;21486;51.916;8.378;2023-04-24T11:42:42;7.87;;;5.67;;
35380;SDS011;21486;51.916;8.378;2023-04-24T11:45:09;7.78;;;5.68;;
35380;SDS011;21486;51.916;8.378;2023-04-24T11:47:39;7.30;;;6.40;;
35380;SDS011;21486;51.916;8.378;2023-04-24T11:50:06;6.55;;;5.18;;
35380;SDS011;21486;51.916;8.378;2023-04-24T11:52:33;6.33;;;4.80;;
35380;SDS011;21486;51.916;8.378;2023-04-24T11:55:03;10.20;;;5.10;;
35380;SDS011;21486;51.916;8.378;2023-04-24T11:57:31;6.75;;;4.78;;
35380;SDS011;21486;51.916;8.378;2023-04-24T11:59:59;8.02;;;4.72;;
35380;SDS011;21486;51.916;8.378;2023-04-24T12:02:26;7.88;;;4.80;;
35380;SDS011;21486;51.916;8.378;2023-04-24T12:04:52;5.35;;;3.42;;
35380;SDS011;21486;51.916;8.378;2023-04-24T12:07:19;4.95;;;3.45;;
35380;SDS011;21486;51.916;8.378;2023-04-24T12:09:48;5.07;;;3.20;;
35380;SDS011;21486;51.916;8.378;2023-04-24T12:12:20;5.10;;;3.42;;
35380;SDS011;21486;51.916;8.378;2023-04-24T12:14:52;7.03;;;3.57;;
35380;SDS011;21486;51.916;8.378;2023-04-24T12:17:29;7.18;;;3.60;;
35380;SDS011;21486;51.916;8.378;2023-04-24T12:20:01;8.37;;;4.00;;
35380;SDS011;21486;51.916;8.378;2023-04-24T12:22:44;6.83;;;4.60;;
35380;SDS011;21486;51.916;8.378;2023-04-24T12:25:19;9.45;;;4.38;;
35380;SDS011;21486;51.916;8.378;2023-04-24T12:27:47;10.27;;;6.10;;
35380;SDS011;21486;51.916;8.378;2023-04-24T12:30:29;8.33;;;5.60;;
35380;SDS011;21486;51.916;8.378;2023-04-24T12:32:57;9.70;;;5.53;;
35380;SDS011;21486;51.916;8.378;2023-04-24T12:35:24;11.80;;;5.95;;
35380;SDS011;21486;51.916;8.378;2023-04-24T12:37:51;11.95;;;5.93;;
35380;SDS011;21486;51.916;8.378;2023-04-24T12:40:18;11.38;;;6.03;;
35380;SDS011;21486;51.916;8.378;2023-04-24T12:42:45;10.93;;;6.50;;
35380;SDS011;21486;51.916;8.378;2023-04-24T12:45:13;10.07;;;6.00;;
35380;SDS011;21486;51.916;8.378;2023-04-24T12:47:40;14.73;;;7.35;;
35380;SDS011;21486;51.916;8.378;2023-04-24T12:50:07;10.45;;;6.38;;
35380;SDS011;21486;51.916;8.378;2023-04-24T12:52:34;9.68;;;6.20;;
35380;SDS011;21486;51.916;8.378;2023-04-24T12:55:00;14.00;;;6.63;;
35380;SDS011;21486;51.916;8.378;2023-04-24T12:57:27;15.55;;;7.45;;
35380;SDS011;21486;51.916;8.378;2023-04-24T12:59:54;14.48;;;7.28;;
35380;SDS011;21486;51.916;8.378;2023-04-24T13:02:21;17.92;;;7.88;;
35380;SDS011;21486;51.916;8.378;2023-04-24T13:04:47;19.10;;;9.07;;
35380;SDS011;21486;51.916;8.378;2023-04-24T13:07:13;18.42;;;8.85;;
35380;SDS011;21486;51.916;8.378;2023-04-24T13:09:39;22.48;;;9.90;;
35380;SDS011;21486;51.916;8.378;2023-04-24T13:12:06;19.92;;;10.70;;
35380;SDS011;21486;51.916;8.378;2023-04-24T13:14:32;19.77;;;9.48;;
35380;SDS011;21486;51.916;8.378;2023-04-24T13:16:57;24.23;;;11.45;;
35380;SDS011;21486;51.916;8.378;2023-04-24T13:19:26;21.20;;;9.63;;
35380;SDS011;21486;51.916;8.378;2023-04-24T13:21:53;23.05;;;10.27;;
35380;SDS011;21486;51.916;8.378;2023-04-24T13:24:21;17.35;;;9.32;;
35380;SDS011;21486;51.916;8.378;2023-04-24T13:26:49;22.52;;;10.30;;
35380;SDS011;21486;51.916;8.378;2023-04-24T13:29:15;24.35;;;10.32;;
35380;SDS011;21486;51.916;8.378;2023-04-24T13:31:41;27.00;;;10.37;;
35380;SDS011;21486;51.916;8.378;2023-04-24T13:34:06;20.20;;;10.15;;
35380;SDS011;21486;51.916;8.378;2023-04-24T13:36:32;24.17;;;9.55;;
35380;SDS011;21486;51.916;8.378;2023-04-24T13:38:58;27.47;;;10.80;;
35380;SDS011;21486;51.916;8.378;2023-04-24T13:41:23;27.53;;;11.00;;
35380;SDS011;21486;51.916;8.378;2023-04-24T13:43:49;25.20;;;10.43;;
35380;SDS011;21486;51.916;8.378;2023-04-24T13:46:14;25.87;;;10.30;;
35380;SDS011;21486;51.916;8.378;2023-04-24T13:48:40;28.47;;;10.97;;
35380;SDS011;21486;51.916;8.378;2023-04-24T13:51:06;31.03;;;10.90;;
35380;SDS011;21486;51.916;8.378;2023-04-24T13:53:32;29.77;;;11.10;;
35380;SDS011;21486;51.916;8.378;2023-04-24T13:56:00;26.20;;;10.82;;
35380;SDS011;21486;51.916;8.378;2023-04-24T13:58:26;23.33;;;10.80;;
35380;SDS011;21486;51.916;8.378;2023-04-24T14:00:52;29.13;;;10.23;;
35380;SDS011;21486;51.916;8.378;2023-04-24T14:03:18;26.43;;;10.73;;
35380;SDS011;21486;51.916;8.378;2023-04-24T14:05:43;28.35;;;10.40;;
35380;SDS011;21486;51.916;8.378;2023-04-24T14:08:09;22.38;;;10.35;;
35380;SDS011;21486;51.916;8.378;2023-04-24T14:10:34;28.27;;;10.95;;
35380;SDS011;21486;51.916;8.378;2023-04-24T14:13:00;21.53;;;9.70;;
35380;SDS011;21486;51.916;8.378;2023-04-24T14:15:26;21.73;;;9.50;;
35380;SDS011;21486;51.916;8.378;2023-04-24T14:17:51;24.73;;;10.60;;
35380;SDS011;21486;51.916;8.378;2023-04-24T14:20:17;24.53;;;11.30;;
35380;SDS011;21486;51.916;8.378;2023-04-24T14:22:43;24.45;;;10.40;;
35380;SDS011;21486;51.916;8.378;2023-04-24T14:25:08;23.08;;;10.35;;
35380;SDS011;21486;51.916;8.378;2023-04-24T14:27:34;22.60;;;10.10;;
35380;SDS011;21486;51.916;8.378;2023-04-24T14:30:00;21.90;;;8.47;;
35380;SDS011;21486;51.916;8.378;2023-04-24T14:32:25;19.73;;;7.20;;
35380;SDS011;21486;51.916;8.378;2023-04-24T14:34:51;24.77;;;8.18;;
35380;SDS011;21486;51.916;8.378;2023-04-24T14:37:16;20.63;;;7.33;;
35380;SDS011;21486;51.916;8.378;2023-04-24T14:39:42;17.30;;;6.63;;
35380;SDS011;21486;51.916;8.378;2023-04-24T14:42:08;16.27;;;6.40;;
35380;SDS011;21486;51.916;8.378;2023-04-24T14:44:33;15.23;;;6.22;;
35380;SDS011;21486;51.916;8.378;2023-04-24T14:46:59;13.18;;;5.97;;
35380;SDS011;21486;51.916;8.378;2023-04-24T14:49:25;15.15;;;5.53;;
35380;SDS011;21486;51.916;8.378;2023-04-24T14:51:50;10.82;;;5.65;;
35380;SDS011;21486;51.916;8.378;2023-04-24T14:54:16;14.00;;;5.43;;
35380;SDS011;21486;51.916;8.378;2023-04-24T14:56:41;12.03;;;5.10;;
35380;SDS011;21486;51.916;8.378;2023-04-24T14:59:09;12.05;;;4.55;;